sensor_id;sensor_type;location;lat;lon;timestamp;pressure;altitude;pressure_sealevel;temperature;humidity
42887;BME280;29032;56.028;92.904;2024-03-08T00:04:00;99545.88;;;-1.24;37.52
42887;BME280;29032;56.028;92.904;2024-03-08T00:09:04;99543.78;;;-1.29;37.55
42887;BME280;29032;56.028;92.904;2024-03-08T00:14:06;99550.72;;;-1.19;38.58
42887;BME280;29032;56.028;92.904;2024-03-08T00:19:08;99554.81;;;-1.00;37.70
42887;BME280;29032;56.028;92.904;2024-03-08T00:24:12;99559.38;;;-0.97;36.94
42887;BME280;29032;56.028;92.904;2024-03-08T00:29:14;99559.53;;;-1.15;37.48
42887;BME280;29032;56.028;92.904;2024-03-08T00:34:16;99562.19;;;-1.21;37.41
42887;BME280;29032;56.028;92.904;2024-03-08T00:39:20;99566.34;;;-1.25;37.75
42887;BME280;29032;56.028;92.904;2024-03-08T00:44:22;99565.56;;;-1.41;38.10
42887;BME280;29032;56.028;92.904;2024-03-08T00:49:24;99576.53;;;-1.41;37.86
42887;BME280;29032;56.028;92.904;2024-03-08T00:54:28;99575.38;;;-1.49;39.33
42887;BME280;29032;56.028;92.904;2024-03-08T00:59:30;99564.47;;;-1.43;38.42
42887;BME280;29032;56.028;92.904;2024-03-08T01:04:32;99572.47;;;-1.31;38.78
42887;BME280;29032;56.028;92.904;2024-03-08T01:09:36;99580.25;;;-1.14;38.89
42887;BME280;29032;56.028;92.904;2024-03-08T01:14:38;99586.78;;;-1.26;38.80
42887;BME280;29032;56.028;92.904;2024-03-08T01:19:40;99580.53;;;-1.27;38.69
42887;BME280;29032;56.028;92.904;2024-03-08T01:24:44;99582.91;;;-1.20;38.83
42887;BME280;29032;56.028;92.904;2024-03-08T01:29:46;99587.44;;;-1.32;38.54
42887;BME280;29032;56.028;92.904;2024-03-08T01:34:48;99594.63;;;-1.58;40.11
42887;BME280;29032;56.028;92.904;2024-03-08T01:39:52;99589.38;;;-1.47;38.89
42887;BME280;29032;56.028;92.904;2024-03-08T01:44:54;99595.56;;;-1.61;39.22
42887;BME280;29032;56.028;92.904;2024-03-08T01:49:56;99611.44;;;-1.65;39.56
42887;BME280;29032;56.028;92.904;2024-03-08T01:55:02;99607.06;;;-1.48;39.57
42887;BME280;29032;56.028;92.904;2024-03-08T02:00:05;99608.06;;;-1.60;40.06
42887;BME280;29032;56.028;92.904;2024-03-08T02:05:08;99621.66;;;-1.66;39.87
42887;BME280;29032;56.028;92.904;2024-03-08T02:10:12;99619.91;;;-1.54;39.50
42887;BME280;29032;56.028;92.904;2024-03-08T02:15:14;99619.84;;;-1.45;39.59
42887;BME280;29032;56.028;92.904;2024-03-08T02:20:16;99635.31;;;-1.33;38.99
42887;BME280;29032;56.028;92.904;2024-03-08T02:25:20;99627.88;;;-1.17;39.10
42887;BME280;29032;56.028;92.904;2024-03-08T02:30:22;99630.16;;;-1.16;39.19
42887;BME280;29032;56.028;92.904;2024-03-08T02:35:24;99634.47;;;-1.24;38.63
42887;BME280;29032;56.028;92.904;2024-03-08T02:40:28;99628.84;;;-1.06;38.70
42887;BME280;29032;56.028;92.904;2024-03-08T02:45:30;99638.72;;;-0.99;37.80
42887;BME280;29032;56.028;92.904;2024-03-08T02:50:32;99642.09;;;-1.04;38.38
42887;BME280;29032;56.028;92.904;2024-03-08T02:55:36;99643.66;;;-0.88;37.93
42887;BME280;29032;56.028;92.904;2024-03-08T03:00:38;99651.41;;;-0.87;37.68
42887;BME280;29032;56.028;92.904;2024-03-08T03:05:40;99656.75;;;-1.07;37.30
42887;BME280;29032;56.028;92.904;2024-03-08T03:10:44;99654.09;;;-1.16;38.57
42887;BME280;29032;56.028;92.904;2024-03-08T03:15:46;99658.72;;;-1.22;37.92
42887;BME280;29032;56.028;92.904;2024-03-08T03:20:48;99661.97;;;-1.09;37.63
42887;BME280;29032;56.028;92.904;2024-03-08T03:26:10;99657.25;;;-1.09;37.21
42887;BME280;29032;56.028;92.904;2024-03-08T03:31:13;99662.56;;;-1.05;37.15
42887;BME280;29032;56.028;92.904;2024-03-08T03:36:15;99663.63;;;-0.88;35.39
42887;BME280;29032;56.028;92.904;2024-03-08T03:41:18;99667.28;;;-1.06;36.31
42887;BME280;29032;56.028;92.904;2024-03-08T03:46:21;99667.28;;;-1.06;36.17
42887;BME280;29032;56.028;92.904;2024-03-08T03:51:23;99656.75;;;-1.07;36.31
42887;BME280;29032;56.028;92.904;2024-03-08T03:56:27;99667.69;;;-0.98;36.33
42887;BME280;29032;56.028;92.904;2024-03-08T04:01:29;99666.38;;;-0.88;36.68
42887;BME280;29032;56.028;92.904;2024-03-08T04:06:31;99666.31;;;-0.79;36.12
42887;BME280;29032;56.028;92.904;2024-03-08T04:11:35;99660.91;;;-0.73;35.69
42887;BME280;29032;56.028;92.904;2024-03-08T04:16:37;99670.22;;;-0.70;35.97
42887;BME280;29032;56.028;92.904;2024-03-08T04:21:40;99660.63;;;-0.75;36.27
42887;BME280;29032;56.028;92.904;2024-03-08T04:26:43;99662.91;;;-0.73;36.36
42887;BME280;29032;56.028;92.904;2024-03-08T04:31:45;99663.81;;;-0.91;36.36
42887;BME280;29032;56.028;92.904;2024-03-08T04:36:47;99667.88;;;-0.87;36.44
42887;BME280;29032;56.028;92.904;2024-03-08T04:41:51;99657.69;;;-0.71;36.29
42887;BME280;29032;56.028;92.904;2024-03-08T04:46:53;99655.97;;;-0.84;36.44
42887;BME280;29032;56.028;92.904;2024-03-08T04:52:14;99657.88;;;-0.75;36.48
42887;BME280;29032;56.028;92.904;2024-03-08T04:57:17;99657.41;;;-0.59;36.09
42887;BME280;29032;56.028;92.904;2024-03-08T05:02:38;99650.72;;;-0.43;36.55
42887;BME280;29032;56.028;92.904;2024-03-08T05:07:40;99639.50;;;-0.25;35.86
42887;BME280;29032;56.028;92.904;2024-03-08T05:12:44;99659.56;;;0.11;36.50
42887;BME280;29032;56.028;92.904;2024-03-08T05:17:46;99656.16;;;0.16;35.63
42887;BME280;29032;56.028;92.904;2024-03-08T05:22:48;99663.06;;;0.12;35.80
42887;BME280;29032;56.028;92.904;2024-03-08T05:27:52;99655.31;;;0.10;35.77
42887;BME280;29032;56.028;92.904;2024-03-08T05:32:54;99643.69;;;0.00;35.56
42887;BME280;29032;56.028;92.904;2024-03-08T05:37:56;99652.56;;;0.10;35.45
42887;BME280;29032;56.028;92.904;2024-03-08T05:43:00;99646.25;;;0.24;35.41
42887;BME280;29032;56.028;92.904;2024-03-08T05:48:02;99638.34;;;0.32;35.18
42887;BME280;29032;56.028;92.904;2024-03-08T05:53:04;99638.28;;;0.26;35.12
42887;BME280;29032;56.028;92.904;2024-03-08T05:58:08;99634.03;;;0.46;35.29
42887;BME280;29032;56.028;92.904;2024-03-08T06:03:10;99633.38;;;0.71;34.63
42887;BME280;29032;56.028;92.904;2024-03-08T06:08:12;99628.88;;;0.94;34.33
42887;BME280;29032;56.028;92.904;2024-03-08T06:13:16;99625.34;;;1.14;34.05
42887;BME280;29032;56.028;92.904;2024-03-08T06:18:18;99610.94;;;1.30;33.79
42887;BME280;29032;56.028;92.904;2024-03-08T06:23:20;99616.91;;;1.23;33.45
42887;BME280;29032;56.028;92.904;2024-03-08T06:28:24;99612.06;;;1.18;35.35
42887;BME280;29032;56.028;92.904;2024-03-08T06:33:26;99594.09;;;1.23;33.22
42887;BME280;29032;56.028;92.904;2024-03-08T06:38:28;99601.78;;;1.13;33.01
42887;BME280;29032;56.028;92.904;2024-03-08T06:43:32;99596.34;;;0.72;33.72
42887;BME280;29032;56.028;92.904;2024-03-08T06:48:34;99606.44;;;0.60;34.12
42887;BME280;29032;56.028;92.904;2024-03-08T06:53:36;99599.19;;;0.83;34.13
42887;BME280;29032;56.028;92.904;2024-03-08T06:58:40;99603.16;;;1.03;33.34
42887;BME280;29032;56.028;92.904;2024-03-08T07:03:42;99601.19;;;0.83;33.47
42887;BME280;29032;56.028;92.904;2024-03-08T07:08:44;99599.47;;;0.85;34.05
42887;BME280;29032;56.028;92.904;2024-03-08T07:13:48;99600.47;;;1.08;33.76
42887;BME280;29032;56.028;92.904;2024-03-08T07:18:50;99608.97;;;1.05;32.89
42887;BME280;29032;56.028;92.904;2024-03-08T07:23:52;99604.75;;;0.63;33.29
42887;BME280;29032;56.028;92.904;2024-03-08T07:28:56;99609.94;;;0.20;34.65
42887;BME280;29032;56.028;92.904;2024-03-08T07:33:58;99615.84;;;0.33;34.76
42887;BME280;29032;56.028;92.904;2024-03-08T07:39:00;99610.59;;;0.50;34.94
42887;BME280;29032;56.028;92.904;2024-03-08T07:44:04;99601.69;;;0.61;34.85
42887;BME280;29032;56.028;92.904;2024-03-08T07:49:06;99606.03;;;0.68;33.93
42887;BME280;29032;56.028;92.904;2024-03-08T07:54:09;99612.09;;;0.31;34.44
42887;BME280;29032;56.028;92.904;2024-03-08T07:59:12;99621.06;;;0.11;35.54
42887;BME280;29032;56.028;92.904;2024-03-08T08:04:15;99624.72;;;0.23;35.56
42887;BME280;29032;56.028;92.904;2024-03-08T08:09:17;99619.38;;;-0.01;36.16
42887;BME280;29032;56.028;92.904;2024-03-08T08:14:21;99615.81;;;-0.07;37.17
42887;BME280;29032;56.028;92.904;2024-03-08T08:19:23;99639.88;;;-0.17;38.29
42887;BME280;29032;56.028;92.904;2024-03-08T08:24:25;99637.03;;;-0.52;40.04
42887;BME280;29032;56.028;92.904;2024-03-08T08:29:29;99640.47;;;-0.57;44.29
42887;BME280;29032;56.028;92.904;2024-03-08T08:34:31;99646.25;;;-0.55;41.80
42887;BME280;29032;56.028;92.904;2024-03-08T08:39:33;99649.75;;;-0.69;42.87
42887;BME280;29032;56.028;92.904;2024-03-08T08:44:36;99664.06;;;-1.04;44.75
42887;BME280;29032;56.028;92.904;2024-03-08T08:49:39;99661.34;;;-1.28;46.17
42887;BME280;29032;56.028;92.904;2024-03-08T08:54:41;99668.47;;;-1.45;47.25
42887;BME280;29032;56.028;92.904;2024-03-08T08:59:44;99673.69;;;-1.47;47.60
42887;BME280;29032;56.028;92.904;2024-03-08T09:04:47;99675.59;;;-1.63;48.55
42887;BME280;29032;56.028;92.904;2024-03-08T09:09:49;99678.44;;;-1.57;48.32
42887;BME280;29032;56.028;92.904;2024-03-08T09:14:52;99682.94;;;-1.45;48.69
42887;BME280;29032;56.028;92.904;2024-03-08T09:19:55;99688.31;;;-1.50;48.77
42887;BME280;29032;56.028;92.904;2024-03-08T09:24:57;99691.94;;;-1.68;48.61
42887;BME280;29032;56.028;92.904;2024-03-08T09:30:00;99699.81;;;-1.61;48.60
42887;BME280;29032;56.028;92.904;2024-03-08T09:35:03;99707.69;;;-1.54;48.35
42887;BME280;29032;56.028;92.904;2024-03-08T09:40:06;99702.78;;;-1.50;48.69
42887;BME280;29032;56.028;92.904;2024-03-08T09:45:11;99713.38;;;-1.34;48.39
42887;BME280;29032;56.028;92.904;2024-03-08T09:50:14;99710.03;;;-1.38;48.17
42887;BME280;29032;56.028;92.904;2024-03-08T09:55:16;99714.69;;;-1.20;47.83
42887;BME280;29032;56.028;92.904;2024-03-08T10:00:20;99723.78;;;-0.90;47.10
42887;BME280;29032;56.028;92.904;2024-03-08T10:05:22;99716.94;;;-0.94;47.41
42887;BME280;29032;56.028;92.904;2024-03-08T10:10:24;99723.13;;;-0.85;46.60
42887;BME280;29032;56.028;92.904;2024-03-08T10:15:28;99714.22;;;-0.80;46.79
42887;BME280;29032;56.028;92.904;2024-03-08T10:20:32;99715.31;;;-0.62;47.13
42887;BME280;29032;56.028;92.904;2024-03-08T10:25:35;99718.72;;;-0.53;45.92
42887;BME280;29032;56.028;92.904;2024-03-08T10:30:47;99716.66;;;-0.43;44.51
42887;BME280;29032;56.028;92.904;2024-03-08T10:35:50;99704.41;;;-0.71;45.49
42887;BME280;29032;56.028;92.904;2024-03-08T10:40:53;99718.63;;;-0.58;46.69
42887;BME280;29032;56.028;92.904;2024-03-08T10:46:08;99721.59;;;-0.47;46.00
42887;BME280;29032;56.028;92.904;2024-03-08T10:51:16;99720.44;;;-0.55;47.81
42887;BME280;29032;56.028;92.904;2024-03-08T10:56:18;99719.84;;;-0.59;47.59
42887;BME280;29032;56.028;92.904;2024-03-08T11:01:22;99723.91;;;-0.69;47.73
42887;BME280;29032;56.028;92.904;2024-03-08T11:06:30;99730.06;;;-0.74;47.21
42887;BME280;29032;56.028;92.904;2024-03-08T11:11:33;99732.69;;;-0.80;47.93
42887;BME280;29032;56.028;92.904;2024-03-08T11:16:44;99716.59;;;-0.72;47.06
42887;BME280;29032;56.028;92.904;2024-03-08T11:21:58;99725.00;;;-0.91;46.85
42887;BME280;29032;56.028;92.904;2024-03-08T11:27:03;99715.38;;;-1.10;48.48
42887;BME280;29032;56.028;92.904;2024-03-08T11:32:10;99724.91;;;-1.20;48.44
42887;BME280;29032;56.028;92.904;2024-03-08T11:37:13;99730.69;;;-1.18;48.65
42887;BME280;29032;56.028;92.904;2024-03-08T11:42:15;99736.72;;;-1.14;48.14
42887;BME280;29032;56.028;92.904;2024-03-08T11:47:20;99745.31;;;-1.21;48.16
42887;BME280;29032;56.028;92.904;2024-03-08T11:52:22;99749.97;;;-1.37;48.35
42887;BME280;29032;56.028;92.904;2024-03-08T11:57:24;99752.19;;;-1.50;49.10
42887;BME280;29032;56.028;92.904;2024-03-08T12:02:28;99764.78;;;-1.43;48.66
42887;BME280;29032;56.028;92.904;2024-03-08T12:07:31;99750.53;;;-1.56;48.85
42887;BME280;29032;56.028;92.904;2024-03-08T12:12:33;99758.66;;;-1.62;49.09
42887;BME280;29032;56.028;92.904;2024-03-08T12:17:40;99761.84;;;-1.64;48.53
42887;BME280;29032;56.028;92.904;2024-03-08T12:22:42;99767.00;;;-1.56;49.16
42887;BME280;29032;56.028;92.904;2024-03-08T12:27:45;99777.38;;;-1.61;49.29
42887;BME280;29032;56.028;92.904;2024-03-08T12:32:53;99779.06;;;-1.63;48.95
42887;BME280;29032;56.028;92.904;2024-03-08T12:37:57;99778.81;;;-1.74;49.19
42887;BME280;29032;56.028;92.904;2024-03-08T12:42:59;99790.34;;;-1.70;49.11
42887;BME280;29032;56.028;92.904;2024-03-08T12:48:12;99793.81;;;-1.51;47.58
42887;BME280;29032;56.028;92.904;2024-03-08T12:53:14;99792.47;;;-1.65;48.70
42887;BME280;29032;56.028;92.904;2024-03-08T12:58:17;99800.03;;;-1.51;48.90
42887;BME280;29032;56.028;92.904;2024-03-08T13:03:21;99799.69;;;-1.35;48.34
42887;BME280;29032;56.028;92.904;2024-03-08T13:08:24;99809.72;;;-1.32;48.01
42887;BME280;29032;56.028;92.904;2024-03-08T13:13:26;99809.47;;;-1.43;48.04
42887;BME280;29032;56.028;92.904;2024-03-08T13:18:30;99805.66;;;-1.45;48.34
42887;BME280;29032;56.028;92.904;2024-03-08T13:23:32;99809.78;;;-1.50;48.85
42887;BME280;29032;56.028;92.904;2024-03-08T13:28:34;99815.16;;;-1.55;48.61
42887;BME280;29032;56.028;92.904;2024-03-08T13:33:38;99816.69;;;-1.64;48.85
42887;BME280;29032;56.028;92.904;2024-03-08T13:38:42;99821.44;;;-1.64;48.86
42887;BME280;29032;56.028;92.904;2024-03-08T13:43:46;99834.59;;;-1.87;49.11
42887;BME280;29032;56.028;92.904;2024-03-08T13:48:50;99836.56;;;-1.87;49.67
42887;BME280;29032;56.028;92.904;2024-03-08T13:53:53;99851.34;;;-1.75;49.21
42887;BME280;29032;56.028;92.904;2024-03-08T13:58:57;99851.91;;;-1.62;49.06
42887;BME280;29032;56.028;92.904;2024-03-08T14:04:01;99864.72;;;-1.68;49.01
42887;BME280;29032;56.028;92.904;2024-03-08T14:09:03;99861.66;;;-1.70;49.49
42887;BME280;29032;56.028;92.904;2024-03-08T14:14:05;99875.38;;;-1.61;49.20
42887;BME280;29032;56.028;92.904;2024-03-08T14:19:09;99877.34;;;-1.52;48.44
42887;BME280;29032;56.028;92.904;2024-03-08T14:24:11;99892.63;;;-1.79;49.64
42887;BME280;29032;56.028;92.904;2024-03-08T14:29:13;99899.78;;;-1.81;49.72
42887;BME280;29032;56.028;92.904;2024-03-08T14:34:17;99908.63;;;-1.68;49.44
42887;BME280;29032;56.028;92.904;2024-03-08T14:39:19;99914.38;;;-1.57;49.81
42887;BME280;29032;56.028;92.904;2024-03-08T14:44:21;99919.09;;;-1.57;49.15
42887;BME280;29032;56.028;92.904;2024-03-08T14:49:25;99933.91;;;-1.64;48.51
42887;BME280;29032;56.028;92.904;2024-03-08T14:54:28;99939.56;;;-1.86;48.65
42887;BME280;29032;56.028;92.904;2024-03-08T14:59:30;99948.84;;;-2.11;49.08
42887;BME280;29032;56.028;92.904;2024-03-08T15:04:33;99959.47;;;-2.22;49.66
42887;BME280;29032;56.028;92.904;2024-03-08T15:09:35;99958.53;;;-2.37;49.80
42887;BME280;29032;56.028;92.904;2024-03-08T15:14:40;99968.88;;;-2.42;50.41
42887;BME280;29032;56.028;92.904;2024-03-08T15:19:44;99980.16;;;-2.30;50.62
42887;BME280;29032;56.028;92.904;2024-03-08T15:24:46;99984.13;;;-2.31;49.65
42887;BME280;29032;56.028;92.904;2024-03-08T15:29:48;100002.19;;;-2.52;49.72
42887;BME280;29032;56.028;92.904;2024-03-08T15:34:52;99998.00;;;-2.66;50.58
42887;BME280;29032;56.028;92.904;2024-03-08T15:39:54;100013.75;;;-2.48;50.10
42887;BME280;29032;56.028;92.904;2024-03-08T15:44:56;100009.56;;;-2.22;48.84
42887;BME280;29032;56.028;92.904;2024-03-08T15:50:00;100007.03;;;-2.56;50.86
42887;BME280;29032;56.028;92.904;2024-03-08T15:55:02;100012.97;;;-2.58;50.47
42887;BME280;29032;56.028;92.904;2024-03-08T16:00:05;100018.50;;;-2.39;50.09
42887;BME280;29032;56.028;92.904;2024-03-08T16:05:09;100018.25;;;-2.14;49.48
42887;BME280;29032;56.028;92.904;2024-03-08T16:10:11;100035.06;;;-1.94;49.19
42887;BME280;29032;56.028;92.904;2024-03-08T16:15:13;100046.97;;;-1.78;48.89
42887;BME280;29032;56.028;92.904;2024-03-08T16:20:17;100055.34;;;-1.64;48.51
42887;BME280;29032;56.028;92.904;2024-03-08T16:25:19;100058.59;;;-1.56;47.84
42887;BME280;29032;56.028;92.904;2024-03-08T16:30:22;100050.50;;;-1.50;47.81
42887;BME280;29032;56.028;92.904;2024-03-08T16:35:25;100072.75;;;-1.57;47.49
42887;BME280;29032;56.028;92.904;2024-03-08T16:40:28;100069.94;;;-2.03;46.54
42887;BME280;29032;56.028;92.904;2024-03-08T16:45:31;100080.38;;;-2.20;46.94
42887;BME280;29032;56.028;92.904;2024-03-08T16:50:35;100095.63;;;-2.19;46.73
42887;BME280;29032;56.028;92.904;2024-03-08T16:55:37;100113.19;;;-2.38;46.22
42887;BME280;29032;56.028;92.904;2024-03-08T17:00:39;100098.44;;;-2.63;46.36
42887;BME280;29032;56.028;92.904;2024-03-08T17:05:43;100093.31;;;-2.61;46.99
42887;BME280;29032;56.028;92.904;2024-03-08T17:10:45;100097.13;;;-2.58;46.46
42887;BME280;29032;56.028;92.904;2024-03-08T17:15:48;100108.19;;;-2.62;46.89
42887;BME280;29032;56.028;92.904;2024-03-08T17:20:51;100126.53;;;-2.50;46.52
42887;BME280;29032;56.028;92.904;2024-03-08T17:25:53;100131.81;;;-2.55;46.66
42887;BME280;29032;56.028;92.904;2024-03-08T17:30:56;100135.56;;;-2.62;46.43
42887;BME280;29032;56.028;92.904;2024-03-08T17:35:59;100139.53;;;-2.63;46.48
42887;BME280;29032;56.028;92.904;2024-03-08T17:41:02;100146.13;;;-2.82;46.55
42887;BME280;29032;56.028;92.904;2024-03-08T17:46:04;100153.81;;;-2.90;46.65
42887;BME280;29032;56.028;92.904;2024-03-08T17:51:08;100164.88;;;-2.93;47.14
42887;BME280;29032;56.028;92.904;2024-03-08T17:56:10;100162.59;;;-2.95;47.10
42887;BME280;29032;56.028;92.904;2024-03-08T18:01:12;100182.84;;;-2.92;46.62
42887;BME280;29032;56.028;92.904;2024-03-08T18:06:17;100185.63;;;-2.83;46.04
42887;BME280;29032;56.028;92.904;2024-03-08T18:11:19;100182.72;;;-2.89;46.60
42887;BME280;29032;56.028;92.904;2024-03-08T18:16:21;100184.22;;;-3.10;46.19
42887;BME280;29032;56.028;92.904;2024-03-08T18:21:25;100195.47;;;-3.08;46.23
42887;BME280;29032;56.028;92.904;2024-03-08T18:26:27;100200.47;;;-3.28;45.93
42887;BME280;29032;56.028;92.904;2024-03-08T18:31:30;100202.00;;;-3.40;46.36
42887;BME280;29032;56.028;92.904;2024-03-08T18:36:33;100201.69;;;-3.42;45.97
42887;BME280;29032;56.028;92.904;2024-03-08T18:41:36;100215.28;;;-3.51;45.94
42887;BME280;29032;56.028;92.904;2024-03-08T18:46:38;100227.31;;;-3.61;46.25
42887;BME280;29032;56.028;92.904;2024-03-08T18:51:41;100231.47;;;-3.57;46.09
42887;BME280;29032;56.028;92.904;2024-03-08T18:56:43;100236.94;;;-3.44;45.51
42887;BME280;29032;56.028;92.904;2024-03-08T19:01:46;100236.47;;;-3.30;45.18
42887;BME280;29032;56.028;92.904;2024-03-08T19:06:49;100243.34;;;-3.12;44.79
42887;BME280;29032;56.028;92.904;2024-03-08T19:11:51;100252.78;;;-3.26;44.03
42887;BME280;29032;56.028;92.904;2024-03-08T19:16:54;100255.75;;;-3.71;43.90
42887;BME280;29032;56.028;92.904;2024-03-08T19:21:57;100266.31;;;-4.12;44.40
42887;BME280;29032;56.028;92.904;2024-03-08T19:26:59;100273.88;;;-4.32;44.22
42887;BME280;29032;56.028;92.904;2024-03-08T19:32:02;100275.22;;;-4.53;43.99
42887;BME280;29032;56.028;92.904;2024-03-08T19:37:06;100281.06;;;-4.51;44.00
42887;BME280;29032;56.028;92.904;2024-03-08T19:42:08;100280.44;;;-4.42;43.67
42887;BME280;29032;56.028;92.904;2024-03-08T19:47:10;100286.63;;;-4.13;43.08
42887;BME280;29032;56.028;92.904;2024-03-08T19:52:14;100291.50;;;-3.91;42.96
42887;BME280;29032;56.028;92.904;2024-03-08T19:57:16;100303.53;;;-3.76;42.06
42887;BME280;29032;56.028;92.904;2024-03-08T20:02:18;100313.47;;;-3.82;42.02
42887;BME280;29032;56.028;92.904;2024-03-08T20:07:22;100324.81;;;-4.09;42.53
42887;BME280;29032;56.028;92.904;2024-03-08T20:12:24;100323.13;;;-4.19;42.64
42887;BME280;29032;56.028;92.904;2024-03-08T20:17:26;100333.72;;;-4.21;42.28
42887;BME280;29032;56.028;92.904;2024-03-08T20:22:30;100343.19;;;-4.26;42.05
42887;BME280;29032;56.028;92.904;2024-03-08T20:27:32;100347.19;;;-4.59;42.19
42887;BME280;29032;56.028;92.904;2024-03-08T20:32:34;100348.38;;;-4.60;42.33
42887;BME280;29032;56.028;92.904;2024-03-08T20:37:41;100354.94;;;-4.42;42.56
42887;BME280;29032;56.028;92.904;2024-03-08T20:42:43;100364.22;;;-4.23;41.15
42887;BME280;29032;56.028;92.904;2024-03-08T20:47:46;100374.94;;;-4.16;41.60
42887;BME280;29032;56.028;92.904;2024-03-08T20:52:50;100374.75;;;-4.09;41.40
42887;BME280;29032;56.028;92.904;2024-03-08T20:57:52;100384.16;;;-4.10;41.43
42887;BME280;29032;56.028;92.904;2024-03-08T21:02:55;100388.75;;;-4.07;41.59
42887;BME280;29032;56.028;92.904;2024-03-08T21:07:58;100392.16;;;-4.02;41.04
42887;BME280;29032;56.028;92.904;2024-03-08T21:13:01;100398.28;;;-3.98;41.18
42887;BME280;29032;56.028;92.904;2024-03-08T21:18:03;100400.00;;;-4.04;41.00
42887;BME280;29032;56.028;92.904;2024-03-08T21:23:07;100414.53;;;-4.08;41.55
42887;BME280;29032;56.028;92.904;2024-03-08T21:28:10;100410.53;;;-4.19;42.00
42887;BME280;29032;56.028;92.904;2024-03-08T21:33:12;100422.28;;;-4.35;42.15
42887;BME280;29032;56.028;92.904;2024-03-08T21:38:16;100434.03;;;-4.38;42.00
42887;BME280;29032;56.028;92.904;2024-03-08T21:43:19;100433.38;;;-4.42;42.70
42887;BME280;29032;56.028;92.904;2024-03-08T21:48:21;100433.88;;;-4.31;42.24
42887;BME280;29032;56.028;92.904;2024-03-08T21:53:25;100446.84;;;-4.19;42.30
42887;BME280;29032;56.028;92.904;2024-03-08T21:58:27;100446.25;;;-4.26;42.12
42887;BME280;29032;56.028;92.904;2024-03-08T22:03:29;100450.44;;;-4.38;42.44
42887;BME280;29032;56.028;92.904;2024-03-08T22:08:33;100457.97;;;-4.58;42.65
42887;BME280;29032;56.028;92.904;2024-03-08T22:13:53;100459.22;;;-4.63;42.91
42887;BME280;29032;56.028;92.904;2024-03-08T22:18:55;100465.44;;;-4.79;42.23
42887;BME280;29032;56.028;92.904;2024-03-08T22:23:59;100463.22;;;-4.84;41.78
42887;BME280;29032;56.028;92.904;2024-03-08T22:29:01;100483.28;;;-5.10;42.33
42887;BME280;29032;56.028;92.904;2024-03-08T22:34:03;100490.03;;;-5.35;41.14
42887;BME280;29032;56.028;92.904;2024-03-08T22:39:08;100484.00;;;-5.46;41.06
42887;BME280;29032;56.028;92.904;2024-03-08T22:44:10;100491.38;;;-5.66;40.97
42887;BME280;29032;56.028;92.904;2024-03-08T22:49:12;100495.88;;;-5.76;40.76
42887;BME280;29032;56.028;92.904;2024-03-08T22:54:16;100497.00;;;-5.97;40.37
42887;BME280;29032;56.028;92.904;2024-03-08T22:59:18;100500.44;;;-6.16;40.34
42887;BME280;29032;56.028;92.904;2024-03-08T23:04:20;100508.41;;;-6.29;40.06
42887;BME280;29032;56.028;92.904;2024-03-08T23:09:23;100510.50;;;-6.37;39.86
42887;BME280;29032;56.028;92.904;2024-03-08T23:14:25;100511.22;;;-6.33;39.56
42887;BME280;29032;56.028;92.904;2024-03-08T23:19:28;100517.13;;;-6.38;39.62
42887;BME280;29032;56.028;92.904;2024-03-08T23:24:31;100525.94;;;-6.30;39.46
42887;BME280;29032;56.028;92.904;2024-03-08T23:29:33;100529.94;;;-6.35;38.98
42887;BME280;29032;56.028;92.904;2024-03-08T23:34:36;100532.44;;;-6.47;39.05
42887;BME280;29032;56.028;92.904;2024-03-08T23:39:39;100538.56;;;-6.40;39.14
42887;BME280;29032;56.028;92.904;2024-03-08T23:44:41;100545.75;;;-6.53;38.91
42887;BME280;29032;56.028;92.904;2024-03-08T23:49:43;100545.22;;;-6.71;38.77
42887;BME280;29032;56.028;92.904;2024-03-08T23:55:06;100544.41;;;-6.68;39.03
